Time;durP1;ratioP1;P1;durP2;ratioP2;P2;SDS_P1;SDS_P2;PMS_P1;PMS_P2;Temp;Humidity;BMP_temperature;BMP_pressure;BME280_temperature;BME280_humidity;BME280_pressure;Samples;Min_cycle;Max_cycle;Signal;HPM_P1;HPM_P2
2021/06/04 16:37:41;;;;;;;23.20;18.55;;;26.60;49.00;;;;;;5092726;27;20367;-73
2021/06/04 16:40:07;;;;;;;21.25;18.70;;;26.40;49.40;;;;;;5096308;28;20028;-74
2021/06/04 16:42:32;;;;;;;21.55;18.45;;;26.40;49.20;;;;;;5088101;28;20021;-74
2021/06/04 16:44:58;;;;;;;24.08;17.80;;;26.40;49.40;;;;;;5099449;28;20030;-75
2021/06/04 16:47:25;;;;;;;19.17;16.60;;;26.40;49.20;;;;;;5088875;28;20027;-73
2021/06/04 16:49:51;;;;;;;20.92;18.40;;;26.30;48.90;;;;;;5074105;28;20027;-76
2021/06/04 16:52:16;;;;;;;22.25;19.52;;;26.10;49.60;;;;;;5090993;28;20032;-73
2021/06/04 16:54:42;;;;;;;24.65;20.23;;;25.90;50.70;;;;;;5094793;28;20048;-67
2021/06/04 16:57:09;;;;;;;25.70;20.77;;;25.90;51.50;;;;;;5082092;28;20030;-77
2021/06/04 16:59:35;;;;;;;31.40;23.17;;;25.90;52.00;;;;;;5088799;28;20055;-72
2021/06/04 17:02:00;;;;;;;27.98;23.65;;;25.60;53.20;;;;;;5101834;28;20043;-74
2021/06/04 17:04:26;;;;;;;29.42;24.05;;;25.50;54.10;;;;;;5094365;28;20497;-74
2021/06/04 17:06:51;;;;;;;29.20;25.60;;;25.40;55.70;;;;;;5094023;28;20479;-73
2021/06/04 17:09:17;;;;;;;34.20;27.15;;;25.20;57.20;;;;;;5101751;28;20114;-74
2021/06/04 17:11:42;;;;;;;30.85;26.98;;;25.00;60.10;;;;;;5089232;28;20035;-76
2021/06/04 17:14:10;;;;;;;36.47;28.35;;;24.70;63.40;;;;;;5100913;28;20032;-76
2021/06/04 17:16:36;;;;;;;34.67;29.85;;;24.40;65.00;;;;;;5096569;28;20020;-75
2021/06/04 17:19:01;;;;;;;33.53;27.95;;;24.20;66.50;;;;;;5087310;28;20074;-76
2021/06/04 17:21:27;;;;;;;36.20;26.23;;;24.00;66.90;;;;;;5091664;28;20137;-73
2021/06/04 17:23:55;;;;;;;33.95;27.90;;;24.00;67.60;;;;;;5102022;28;20016;-72
2021/06/04 17:26:21;;;;;;;34.22;26.25;;;23.80;69.40;;;;;;5091265;28;20030;-72
2021/06/04 17:28:47;;;;;;;35.38;27.60;;;23.70;71.10;;;;;;5094044;28;20111;-72
2021/06/04 17:31:12;;;;;;;50.17;39.97;;;23.50;71.30;;;;;;5100278;28;20530;-72
2021/06/04 17:33:38;;;;;;;40.30;31.40;;;23.40;72.40;;;;;;5088710;28;20033;-64
2021/06/04 17:36:04;;;;;;;44.42;35.88;;;23.20;73.40;;;;;;5099811;28;20390;-70
2021/06/04 17:38:29;;;;;;;43.75;34.63;;;22.90;75.50;;;;;;5093888;28;20055;-70
2021/06/04 17:40:55;;;;;;;34.83;31.17;;;22.80;75.40;;;;;;5093179;28;20040;-79
2021/06/04 17:43:21;;;;;;;32.33;28.20;;;22.40;74.60;;;;;;5100539;28;20687;-76
2021/06/04 17:45:49;;;;;;;36.40;27.70;;;22.40;75.10;;;;;;5088783;28;20024;-76
2021/06/04 17:48:15;;;;;;;36.42;26.05;;;22.50;74.50;;;;;;5089638;28;20029;-78
2021/06/04 17:50:42;;;;;;;33.33;24.70;;;22.70;73.60;;;;;;5082750;28;20043;-78
2021/06/04 17:53:07;;;;;;;40.25;28.13;;;22.80;72.30;;;;;;5092579;28;20032;-78
2021/06/04 17:55:35;;;;;;;76.35;41.65;;;22.70;73.70;;;;;;5080882;28;20108;-78
2021/06/04 17:58:01;;;;;;;84.00;48.95;;;22.50;73.40;;;;;;5094306;28;20043;-78
2021/06/04 18:00:28;;;;;;;26.33;20.75;;;22.20;73.80;;;;;;5087111;28;20021;-78
2021/06/04 18:02:54;;;;;;;21.90;17.85;;;21.80;73.40;;;;;;5081028;28;20056;-80
2021/06/04 18:05:20;;;;;;;21.67;16.13;;;21.30;74.70;;;;;;5089296;28;20490;-80
2021/06/04 18:07:46;;;;;;;30.38;21.08;;;21.00;75.30;;;;;;5076882;28;20020;-81
2021/06/04 18:10:12;;;;;;;260.67;138.60;;;21.10;75.00;;;;;;5085769;28;20058;-70
2021/06/04 18:12:38;;;;;;;318.48;160.25;;;21.30;78.20;;;;;;5081878;28;20141;-70
2021/06/04 18:15:05;;;;;;;118.93;69.68;;;21.90;76.50;;;;;;5078600;28;20052;-70
2021/06/04 18:17:30;;;;;;;242.68;143.00;;;22.00;72.80;;;;;;5086291;28;20031;-70
2021/06/04 18:19:56;;;;;;;354.63;227.25;;;22.30;74.10;;;;;;5073870;28;20421;-71
2021/06/04 18:22:21;;;;;;;222.10;143.48;;;22.20;73.10;;;;;;5087032;28;20009;-68
2021/06/04 18:24:47;;;;;;;38.58;26.25;;;22.20;73.60;;;;;;5080029;28;20481;-69
2021/06/04 18:27:15;;;;;;;52.95;35.38;;;22.10;73.20;;;;;;5079660;28;20024;-70
2021/06/04 18:29:40;;;;;;;48.90;33.20;;;22.30;72.80;;;;;;5087258;28;20021;-71
2021/06/04 18:32:06;;;;;;;38.72;25.45;;;22.50;71.60;;;;;;5074975;28;20032;-74
2021/06/04 18:34:32;;;;;;;43.33;26.60;;;22.50;72.90;;;;;;5085625;28;20036;-77
2021/06/04 18:36:59;;;;;;;26.77;18.88;;;22.30;72.10;;;;;;5080069;28;20125;-78
2021/06/04 18:39:27;;;;;;;17.85;14.95;;;22.00;73.60;;;;;;5078599;28;20028;-77
2021/06/04 18:41:53;;;;;;;17.73;15.57;;;21.70;73.30;;;;;;5074497;28;20039;-76
2021/06/04 18:44:18;;;;;;;23.13;16.38;;;21.10;76.30;;;;;;5084115;28;20028;-79
2021/06/04 18:46:44;;;;;;;22.10;17.35;;;21.40;77.10;;;;;;5076918;28;20032;-77
2021/06/04 18:49:09;;;;;;;20.35;15.43;;;21.00;77.60;;;;;;5088538;28;20545;-77
2021/06/04 18:51:35;;;;;;;20.08;14.88;;;21.10;77.70;;;;;;5077616;28;20069;-77
2021/06/04 18:54:01;;;;;;;22.90;13.70;;;21.30;77.80;;;;;;5082072;28;20034;-79
2021/06/04 18:56:27;;;;;;;19.52;14.55;;;21.80;75.70;;;;;;5083784;28;20028;-75
2021/06/04 18:58:52;;;;;;;15.60;13.10;;;22.10;73.90;;;;;;5074340;28;20067;-76
2021/06/04 19:01:19;;;;;;;16.35;12.13;;;22.20;73.30;;;;;;5087681;28;20024;-76
2021/06/04 19:03:46;;;;;;;17.70;12.73;;;22.60;71.90;;;;;;5079022;28;20474;-77
2021/06/04 19:06:18;;;;;;;21.13;13.35;;;23.00;70.60;;;;;;5078690;28;20028;-72
2021/06/04 19:08:44;;;;;;;17.05;11.07;;;23.30;69.20;;;;;;5086698;28;20024;-72
2021/06/04 19:11:11;;;;;;;15.90;11.45;;;23.30;68.30;;;;;;5074197;28;20056;-71
2021/06/04 19:13:36;;;;;;;12.68;10.02;;;23.50;67.50;;;;;;5084753;28;20028;-71
2021/06/04 19:16:02;;;;;;;15.07;11.48;;;23.50;67.20;;;;;;5080436;28;20501;-69
2021/06/04 19:18:27;;;;;;;13.55;10.35;;;23.50;67.10;;;;;;5077478;28;20082;-71
2021/06/04 19:20:53;;;;;;;12.45;9.57;;;23.40;67.00;;;;;;5087281;28;20016;-71
2021/06/04 19:23:21;;;;;;;12.25;10.10;;;23.40;67.30;;;;;;5073295;28;20530;-71
2021/06/04 19:25:47;;;;;;;15.73;11.05;;;23.40;67.10;;;;;;5082918;28;20025;-71
2021/06/04 19:28:13;;;;;;;18.20;12.13;;;23.10;67.20;;;;;;5082101;28;20035;-72
2021/06/04 19:30:41;;;;;;;13.35;11.18;;;23.00;68.60;;;;;;5075622;28;20040;-72
2021/06/04 19:33:08;;;;;;;14.30;9.95;;;22.60;69.40;;;;;;5077530;28;20029;-72
2021/06/04 19:35:34;;;;;;;12.52;10.15;;;22.60;70.30;;;;;;5066300;28;20016;-72
2021/06/04 19:38:00;;;;;;;18.23;10.45;;;22.70;69.10;;;;;;5077408;28;20021;-71
2021/06/04 19:40:27;;;;;;;15.57;9.85;;;22.90;69.50;;;;;;5085919;28;20104;-72
2021/06/04 19:42:52;;;;;;;13.05;9.45;;;23.10;68.10;;;;;;5073549;28;20398;-70
2021/06/04 19:45:19;;;;;;;12.45;9.05;;;22.90;68.40;;;;;;5084491;28;20017;-71
2021/06/04 19:47:45;;;;;;;13.50;10.05;;;23.10;68.30;;;;;;5079812;28;20107;-70
2021/06/04 19:50:12;;;;;;;11.82;10.18;;;22.70;68.30;;;;;;5077057;28;20363;-70
2021/06/04 19:52:40;;;;;;;9.70;8.63;;;22.60;69.70;;;;;;5086780;28;20032;-70
2021/06/04 19:55:07;;;;;;;16.13;10.85;;;22.80;69.50;;;;;;5072351;28;20712;-72
2021/06/04 19:57:33;;;;;;;12.95;9.55;;;22.90;68.40;;;;;;5077722;28;20111;-71
2021/06/04 19:59:59;;;;;;;14.40;10.27;;;23.10;67.70;;;;;;5079077;28;20054;-75
2021/06/04 20:02:24;;;;;;;13.40;10.15;;;23.10;67.10;;;;;;5085130;28;20035;-69
2021/06/04 20:04:50;;;;;;;14.20;9.13;;;23.30;66.60;;;;;;5072913;28;20082;-70
2021/06/04 20:07:15;;;;;;;12.13;9.73;;;23.30;66.10;;;;;;5084354;28;20027;-70
2021/06/04 20:09:44;;;;;;;19.38;9.88;;;23.40;65.50;;;;;;5078654;28;20060;-70
2021/06/04 20:12:10;;;;;;;15.45;9.38;;;23.50;65.80;;;;;;5076437;28;20025;-71
2021/06/04 20:14:36;;;;;;;14.77;9.50;;;23.50;64.80;;;;;;5086371;28;20027;-71
2021/06/04 20:17:01;;;;;;;12.55;8.60;;;23.40;65.30;;;;;;5073076;28;20444;-70
2021/06/04 20:19:27;;;;;;;13.13;9.13;;;23.40;65.20;;;;;;5077986;28;20021;-72
2021/06/04 20:21:53;;;;;;;12.38;9.13;;;23.40;65.10;;;;;;5080343;28;20024;-69
2021/06/04 20:24:18;;;;;;;14.68;10.98;;;23.20;66.00;;;;;;5075649;28;20017;-70
2021/06/04 20:26:44;;;;;;;12.95;10.40;;;23.00;67.00;;;;;;5068040;28;20020;-71
2021/06/04 20:29:09;;;;;;;17.02;12.38;;;22.80;67.20;;;;;;5074130;28;20024;-71
2021/06/04 20:31:37;;;;;;;11.90;10.65;;;22.60;68.00;;;;;;5081060;28;20028;-70
2021/06/04 20:34:02;;;;;;;12.77;9.98;;;22.70;68.10;;;;;;5081624;28;20080;-70
2021/06/04 20:36:30;;;;;;;16.77;12.93;;;22.60;68.10;;;;;;5072366;28;20053;-70
2021/06/04 20:38:55;;;;;;;21.33;14.13;;;22.50;68.60;;;;;;5086060;28;20063;-69
2021/06/04 20:41:21;;;;;;;17.73;14.15;;;22.40;69.20;;;;;;5075567;28;20391;-70
2021/06/04 20:43:49;;;;;;;18.13;13.05;;;22.50;68.60;;;;;;5079782;28;20383;-69
2021/06/04 20:46:14;;;;;;;17.45;13.13;;;22.60;67.90;;;;;;5082984;28;20034;-70
2021/06/04 20:48:40;;;;;;;19.13;13.15;;;22.70;68.00;;;;;;5071928;28;20117;-70
2021/06/04 20:51:09;;;;;;;17.55;14.35;;;22.80;67.60;;;;;;5073533;28;20067;-70
2021/06/04 20:53:46;;;;;;;15.95;13.18;;;22.80;67.50;;;;;;5079803;28;20038;-70
2021/06/04 20:56:13;;;;;;;15.82;13.70;;;22.80;67.70;;;;;;5081688;28;20032;-69
2021/06/04 20:58:39;;;;;;;15.45;13.65;;;22.80;67.90;;;;;;5072795;28;20112;-70
2021/06/04 21:01:05;;;;;;;22.00;16.73;;;22.60;68.80;;;;;;5085226;28;20013;-70
2021/06/04 21:03:31;;;;;;;21.67;16.58;;;22.40;69.20;;;;;;5076840;28;20095;-70
2021/06/04 21:05:57;;;;;;;17.27;13.80;;;22.10;70.40;;;;;;5077837;28;20112;-70
2021/06/04 21:08:22;;;;;;;22.85;17.95;;;21.80;70.90;;;;;;5084167;28;20493;-70
2021/06/04 21:10:48;;;;;;;24.02;17.30;;;21.70;72.90;;;;;;5072860;28;20029;-69
2021/06/04 21:13:14;;;;;;;19.75;15.55;;;21.90;71.70;;;;;;5083909;28;20506;-69
2021/06/04 21:15:41;;;;;;;20.55;14.60;;;22.30;70.60;;;;;;5078271;28;20549;-69
2021/06/04 21:18:07;;;;;;;18.45;14.40;;;22.60;69.50;;;;;;5076613;28;20056;-70
2021/06/04 21:20:33;;;;;;;17.13;13.50;;;22.70;68.40;;;;;;5085513;28;20463;-70
2021/06/04 21:23:00;;;;;;;17.00;12.85;;;22.10;69.20;;;;;;5073860;28;20514;-70
2021/06/04 21:25:32;;;;;;;15.75;14.02;;;21.90;71.50;;;;;;5086102;28;20016;-69
2021/06/04 21:27:57;;;;;;;18.13;13.90;;;21.60;71.40;;;;;;5082845;28;20447;-69
2021/06/04 21:30:24;;;;;;;12.93;11.38;;;21.50;72.10;;;;;;5077985;28;20107;-69
2021/06/04 21:32:50;;;;;;;19.17;13.68;;;21.50;73.00;;;;;;5089586;28;20030;-74
2021/06/04 21:35:17;;;;;;;18.52;14.27;;;21.70;72.40;;;;;;5078559;28;20435;-69
2021/06/04 21:37:42;;;;;;;20.10;17.23;;;21.80;72.10;;;;;;5093370;28;20073;-72
2021/06/04 21:40:12;;;;;;;20.13;13.90;;;21.40;72.30;;;;;;5074975;28;20025;-73
2021/06/04 21:42:38;;;;;;;18.27;13.68;;;21.40;73.80;;;;;;5072625;28;20443;-74
2021/06/04 21:45:05;;;;;;;19.17;16.92;;;21.70;72.80;;;;;;5072346;28;20025;-74
2021/06/04 21:47:30;;;;;;;22.27;18.27;;;21.80;71.90;;;;;;5073082;28;20025;-74
2021/06/04 21:49:56;;;;;;;24.02;19.88;;;21.20;74.00;;;;;;5072482;28;20371;-77
2021/06/04 21:52:22;;;;;;;23.40;19.55;;;20.90;75.70;;;;;;5073078;28;20028;-77
2021/06/04 21:54:48;;;;;;;16.60;14.48;;;20.70;76.90;;;;;;5072809;28;20494;-76
2021/06/04 21:57:13;;;;;;;15.75;13.82;;;20.50;77.30;;;;;;5072743;28;20025;-77
2021/06/04 21:59:39;;;;;;;18.63;14.75;;;20.90;75.90;;;;;;5073360;28;20020;-77
2021/06/04 22:02:05;;;;;;;23.27;20.85;;;21.20;74.70;;;;;;5073238;28;20020;-77
2021/06/04 22:04:30;;;;;;;21.50;17.90;;;21.40;74.20;;;;;;5072299;28;20111;-77
2021/06/04 22:06:56;;;;;;;27.50;21.70;;;21.30;74.30;;;;;;5072860;28;20020;-77
2021/06/04 22:09:21;;;;;;;19.55;15.65;;;21.30;75.10;;;;;;5072973;28;20028;-76
2021/06/04 22:11:47;;;;;;;21.48;19.15;;;21.50;73.80;;;;;;5072905;28;20025;-78
2021/06/04 22:14:13;;;;;;;28.17;23.77;;;21.80;73.20;;;;;;5073057;28;20024;-78
2021/06/04 22:16:39;;;;;;;25.00;21.23;;;21.90;73.00;;;;;;5072228;28;20036;-77
2021/06/04 22:19:05;;;;;;;23.90;18.42;;;22.00;71.80;;;;;;5071644;28;20021;-78
2021/06/04 22:21:31;;;;;;;23.58;18.65;;;22.20;71.00;;;;;;5072710;28;20023;-78
2021/06/04 22:23:57;;;;;;;21.40;18.00;;;22.40;70.20;;;;;;5073062;28;20036;-77
2021/06/04 22:26:24;;;;;;;25.48;20.95;;;22.50;69.60;;;;;;5071056;28;20027;-77
2021/06/04 22:28:50;;;;;;;23.25;20.40;;;22.40;69.70;;;;;;5072804;28;20433;-77
2021/06/04 22:31:20;;;;;;;26.65;22.30;;;22.40;69.90;;;;;;5072298;28;20032;-77
2021/06/04 22:33:45;;;;;;;31.90;24.10;;;22.40;69.90;;;;;;5071842;28;20028;-78
2021/06/04 22:36:16;;;;;;;28.60;23.13;;;22.30;70.10;;;;;;5071646;28;20546;-77
2021/06/04 22:38:42;;;;;;;34.20;26.10;;;22.10;71.10;;;;;;5072060;28;20020;-77
2021/06/04 22:41:08;;;;;;;27.00;18.90;;;22.10;71.10;;;;;;5072074;28;20028;-76
2021/06/04 22:43:34;;;;;;;28.10;21.52;;;22.20;70.50;;;;;;5071980;28;20020;-77
2021/06/04 22:46:00;;;;;;;26.30;18.75;;;22.30;70.10;;;;;;5071600;28;20025;-78
2021/06/04 22:48:27;;;;;;;26.02;22.38;;;22.40;69.70;;;;;;5072194;28;20056;-77
2021/06/04 22:50:53;;;;;;;26.23;20.85;;;22.40;69.60;;;;;;5071875;28;20032;-77
2021/06/04 22:53:19;;;;;;;25.25;20.83;;;22.50;69.30;;;;;;5071704;28;20107;-77
2021/06/04 22:55:47;;;;;;;35.80;27.65;;;22.50;69.10;;;;;;5070373;28;20234;-77
2021/06/04 22:58:13;;;;;;;36.20;28.95;;;22.50;69.70;;;;;;5071498;28;20387;-76
2021/06/04 23:00:44;;;;;;;27.75;22.80;;;22.10;71.00;;;;;;5071907;28;20020;-78
2021/06/04 23:03:11;;;;;;;37.10;30.33;;;21.90;71.00;;;;;;5071846;28;20063;-77
2021/06/04 23:05:36;;;;;;;36.30;28.88;;;22.00;71.30;;;;;;5071551;28;20025;-77
2021/06/04 23:08:03;;;;;;;37.45;28.70;;;21.90;71.20;;;;;;5071583;28;20059;-77
2021/06/04 23:10:29;;;;;;;29.60;24.60;;;21.40;72.70;;;;;;5071759;28;20059;-76
2021/06/04 23:12:55;;;;;;;39.42;32.90;;;21.60;72.70;;;;;;5070914;28;20048;-76
2021/06/04 23:15:22;;;;;;;32.25;26.95;;;21.60;73.10;;;;;;5071314;28;20059;-78
2021/06/04 23:17:47;;;;;;;45.83;34.95;;;21.60;72.50;;;;;;5070982;28;20024;-77
2021/06/04 23:20:15;;;;;;;40.10;32.95;;;21.30;73.20;;;;;;5071360;28;20016;-77
2021/06/04 23:22:40;;;;;;;40.40;31.63;;;21.30;73.80;;;;;;5071015;28;20016;-77
2021/06/04 23:25:07;;;;;;;44.55;32.78;;;21.20;73.80;;;;;;5070751;28;20021;-77
2021/06/04 23:27:32;;;;;;;34.58;27.38;;;21.00;74.70;;;;;;5069447;28;20028;-77
2021/06/04 23:29:58;;;;;;;43.30;33.55;;;21.10;74.60;;;;;;5070592;28;20073;-77
2021/06/04 23:32:23;;;;;;;33.88;27.52;;;21.30;73.90;;;;;;5070748;28;20060;-77
2021/06/04 23:34:49;;;;;;;34.40;28.00;;;21.30;74.20;;;;;;5070892;28;20032;-77
2021/06/04 23:37:14;;;;;;;42.80;35.03;;;21.40;73.50;;;;;;5070805;28;20040;-77
2021/06/04 23:39:40;;;;;;;41.97;31.95;;;21.40;73.50;;;;;;5070859;28;20478;-77
2021/06/04 23:42:06;;;;;;;38.45;28.70;;;21.40;73.80;;;;;;5071228;28;20021;-77
2021/06/04 23:44:31;;;;;;;38.92;32.60;;;21.20;74.00;;;;;;5071337;28;20025;-67
2021/06/04 23:46:57;;;;;;;38.00;28.83;;;21.50;74.00;;;;;;5070906;28;20070;-78
2021/06/04 23:49:23;;;;;;;40.45;29.27;;;21.50;73.70;;;;;;5071625;28;20029;-80
2021/06/04 23:51:48;;;;;;;36.50;28.33;;;21.70;72.80;;;;;;5070633;28;20043;-65
2021/06/04 23:54:14;;;;;;;46.10;37.47;;;21.80;71.80;;;;;;5071086;28;20025;-77
2021/06/04 23:56:39;;;;;;;50.40;39.30;;;21.80;71.70;;;;;;5071149;28;20025;-79
2021/06/04 23:59:05;;;;;;;50.25;39.35;;;21.40;73.20;;;;;;5070965;28;20020;-69
